Vandalia, North Carolina
Current Conditions -  °F | °C
As of 8:54 AM on Friday 28 Nov 2014 (Local Time) from KGSO Reporting Station
Scattered Clouds Scattered Clouds  
Wind Chill: 30°   Ceiling: Unl
Heat Index: 34°   Visibility: 10mi
Dew Point: 18°   Wind: 5mph
Humidity: 52%   Direction: 330°NNW
Pressure: 30.35"   Gusts: NA
Location:  36°N, 79.7628°W
Report Text: KGSO 281354Z 33004KT 10SM SCT250 01/M08 A3035 RMK AO2 SLP284 T00111078 $
Loading
Personal Weather Stations






























Interactive Weather Map New forecast layout! Learn more

10-Day Weather Forecast

Advertisements
Track Severe Weather on mobile